Flight Track Log - Related Links

Times and Time Zones

All times are in EDT time to prevent confusion due to time zone crossing. See the GLA171 flight status page for this flight to view local times or setup timezone preferences in your user account.

Time Position Orientation Groundspeed Altitude Reporting Facility
EDT Latitude Longitude Course Direction KTS MPH feet Rate Location/Type
Sun 11:06:08 AM 44.3942 -100.3047 82° East 138 159 2,900  Level Minneapolis Center
Sun 11:07:10 AM 44.4297 -100.3489 318° Northwest 167 192 5,500 2,195 Climbing Minneapolis Center
Sun 11:08:11 AM 44.4392 -100.2975 76° East 182 209 7,400 1,902 Climbing Minneapolis Center
Sun 11:09:00 AM 44.4400 -99.7113 82° East  Level Estimated
Sun 11:09:13 AM 44.4194 -100.2283 112° Southeast 188 216 9,400  Level Minneapolis Center
Sun 11:10:00 AM 44.4493 -99.6154 82° East  Level Estimated
Sun 11:10:15 AM 44.4122 -100.1428 97° East 188 216 11,200  Level Minneapolis Center
Sun 11:11:00 AM 44.4585 -99.5195 82° East  Level Estimated
Sun 11:11:16 AM 44.4067 -100.0661 96° East 192 221 12,800  Level Minneapolis Center
Sun 11:12:18 AM 44.4036 -99.9886 93° East 196 226 14,200 1,317 Climbing Minneapolis Center
Sun 11:13:19 AM 44.4008 -99.9100 93° East 200 230 15,500 1,122 Climbing Minneapolis Center
Sun 11:14:21 AM 44.3969 -99.8283 94° East 207 238 16,500 976 Climbing Minneapolis Center
Sun 11:15:22 AM 44.4039 -99.7453 83° East 214 246 17,500 878 Climbing Minneapolis Center
Sun 11:16:24 AM 44.4111 -99.6617 83° East 217 250 18,300 933 Climbing Minneapolis Center
Sun 11:17:37 AM 44.4175 -99.5803 84° East 214 246 19,600 1,244 Climbing Minneapolis Center
Sun 11:18:39 AM 44.4175 -99.4700 90° East 205 236 21,100 1,161 Climbing Minneapolis Center
Sun 11:19:41 AM 44.4183 -99.3906 89° East 205 236 22,000 871 Climbing Minneapolis Center
Sun 11:20:43 AM 44.4206 -99.3092 88° East 208 239 22,900 488 Climbing Minneapolis Center
Sun 11:21:44 AM 44.4247 -99.2236 86° East 216 249 23,000 98 Climbing Minneapolis Center
Sun 11:22:46 AM 44.4247 -99.1258 90° East 241 277 23,100 49 Climbing Minneapolis Center
Sun 11:23:47 AM 44.4292 -99.0306 86° East 246 283 23,100 -49 Level Minneapolis Center
Sun 11:24:49 AM 44.4350 -98.9422 85° East 236 272 23,000 -49 Descending Minneapolis Center
Sun 11:25:50 AM 44.4372 -98.8531 88° East 232 267 23,000  Level Minneapolis Center
Sun 11:26:52 AM 44.4350 -98.7497 92° East 225 259 23,000  Level Minneapolis Center
Sun 11:27:54 AM 44.4317 -98.6631 93° East 224 258 23,000 48 Level Minneapolis Center
Sun 11:28:56 AM 44.4356 -98.5761 86° East 224 258 23,100 32 Climbing Minneapolis Center
Sun 11:30:00 AM 44.4348 -98.4729 91° East  Level FlightAware Approximate
Sun 11:30:59 AM 44.4339 -98.4039 91° East 223 257 23,100  Level Minneapolis Center
Sun 11:32:01 AM 44.4353 -98.3119 89° East 221 254 23,100 -49 Level Minneapolis Center
Sun 11:33:02 AM 44.4436 -98.2264 82° East 221 254 23,000 -49 Descending Minneapolis Center
Sun 11:34:04 AM 44.4439 -98.1397 90° East 224 258 23,000 48 Level Minneapolis Center
Sun 11:35:06 AM 44.4439 -98.0489 90° East 230 265 23,100  Climbing Minneapolis Center
Sun 11:36:07 AM 44.4458 -97.9322 89° East 246 283 23,000  Descending Minneapolis Center
Sun 11:37:09 AM 44.4564 -97.8333 81° East 252 290 23,100 48 Climbing Minneapolis Center
Sun 11:38:11 AM 44.4592 -97.7319 88° East 260 299 23,100  Level Minneapolis Center
Sun 11:39:12 AM 44.4575 -97.6311 91° East 261 300 23,100 -49 Level Minneapolis Center
Sun 11:40:14 AM 44.4564 -97.5300 91° East 261 300 23,000 -48 Descending Minneapolis Center
Sun 11:41:16 AM 44.4586 -97.4314 88° East 255 293 23,000  Level Minneapolis Center
Sun 11:42:17 AM 44.4633 -97.3394 86° East 241 277 23,000  Level Minneapolis Center
Sun 11:43:31 AM 44.4697 -97.2311 85° East 235 270 23,000 -44 Level Minneapolis Center
Sun 11:44:33 AM 44.4700 -97.1261 90° East 227 261 22,900  Descending Minneapolis Center
Sun 11:45:35 AM 44.4706 -97.0372 89° East 228 262 23,000 48 Climbing Minneapolis Center
Sun 11:46:37 AM 44.4700 -96.9494 90° East 227 261 23,000  Level Minneapolis Center
Sun 11:47:38 AM 44.4706 -96.8619 89° East 225 259 23,000  Level Minneapolis Center
Sun 11:48:40 AM 44.4717 -96.7753 89° East 224 258 23,000  Level Minneapolis Center
Sun 11:49:42 AM 44.4728 -96.6894 89° East 222 255 23,000 49 Level Minneapolis Center
Sun 11:50:43 AM 44.4719 -96.5853 91° East 223 257 23,100  Climbing Minneapolis Center
Sun 11:51:45 AM 44.4717 -96.4972 90° East 224 258 23,000 -48 Descending Minneapolis Center
Sun 11:52:47 AM 44.4722 -96.4106 89° East 223 257 23,000  Level Minneapolis Center
Sun 11:53:49 AM 44.4733 -96.3217 89° East 227 261 23,000  Level Minneapolis Center
Sun 11:54:50 AM 44.4736 -96.2350 90° East 224 258 23,000  Level Minneapolis Center
Sun 11:55:52 AM 44.4719 -96.1461 91° East 227 261 23,000  Level Minneapolis Center
Sun 11:56:54 AM 44.4697 -96.0594 92° East 224 258 23,000  Level Minneapolis Center
Sun 11:57:56 AM 44.4703 -95.9700 89° East 227 261 23,000  Level Minneapolis Center
Sun 11:59:09 AM 44.4683 -95.8808 92° East 229 264 23,000  Level Minneapolis Center
Sun 12:00:11 PM 44.4656 -95.7578 92° East 226 260 23,000  Level Minneapolis Center
Sun 12:01:13 PM 44.4656 -95.6689 90° East 227 261 23,000 48 Level Minneapolis Center
Sun 12:02:15 PM 44.4664 -95.5797 89° East 229 264 23,100 48 Climbing Minneapolis Center
Sun 12:03:17 PM 44.4669 -95.4883 89° East 233 268 23,100 -44 Level Minneapolis Center
Sun 12:04:31 PM 44.4661 -95.3700 91° East 249 287 23,000 -44 Descending Minneapolis Center
Sun 12:05:32 PM 44.4678 -95.2692 89° East 257 296 23,000 -49 Level Minneapolis Center
Sun 12:06:34 PM 44.4700 -95.1686 88° East 258 297 22,900 -774 Descending Minneapolis Center
Sun 12:07:36 PM 44.4794 -95.0414 84° East 275 316 21,400 -1,610 Descending Minneapolis Center
Sun 12:08:37 PM 44.5136 -94.9406 65° Northeast 285 328 19,600 -1,805 Descending Minneapolis Center
Sun 12:09:39 PM 44.5447 -94.8478 65° Northeast 271 312 17,700 -2,081 Descending Minneapolis Center
Sun 12:10:41 PM 44.5661 -94.7483 73° East 267 307 15,300 -2,049 Descending Minneapolis Center
Sun 12:11:42 PM 44.5842 -94.6492 76° East 265 305 13,500 -1,707 Descending Minneapolis Center
Sun 12:12:44 PM 44.6122 -94.5486 69° East 256 295 11,800 -1,500 Descending Minneapolis Center
Sun 12:13:46 PM 44.6350 -94.4539 71° East 258 297 10,400 -1,366 Descending Minneapolis Center
Sun 12:14:47 PM 44.6564 -94.3533 73° East 269 310 9,000 -634 Descending Minneapolis Center
Sun 12:15:49 PM 44.6781 -94.2606 72° East 250 288 9,100 48 Climbing Minneapolis Center
Sun 12:16:51 PM 44.7008 -94.1667 71° East 255 293 9,100  Level Minneapolis Center
Sun 12:17:53 PM 44.7236 -94.0711 71° East 257 296 9,100  Level Minneapolis Center
Sun 12:18:54 PM 44.7350 -93.9519 82° East 259 298 9,100 -49 Level Minneapolis Center
Sun 12:19:56 PM 44.7533 -93.8547 75° East 260 299 9,000  Descending Minneapolis Center
Sun 12:20:58 PM 44.7717 -93.7533 76° East 267 307 9,100  Climbing Minneapolis Center
Sun 12:22:00 PM 44.7961 -93.6539 71° East 271 312 9,000 -293 Descending Minneapolis Center
Sun 12:23:01 PM 44.8278 -93.5558 65° Northeast 275 316 8,500 -439 Descending Minneapolis Center
Sun 12:24:03 PM 44.8475 -93.4519 75° East 274 315 8,100 -194 Descending Minneapolis Center
Sun 12:25:05 PM 44.8544 -93.3517 84° East 264 304 8,100 -823 Level Minneapolis Center
Sun 12:26:07 PM 44.7739 -93.3419 175° South 256 295 6,400 -1,887 Descending Minneapolis Center
Sun 12:27:09 PM 44.7417 -93.3039 140° Southeast 185 213 4,200 -1,512 Descending Minneapolis Center
Sun 12:28:10 PM 44.7744 -93.2544 47° Northeast 168 193 3,300 -1,073 Descending Minneapolis Center
Sun 12:29:12 PM 44.8156 -93.2253 27° Northeast 159 183 2,000 -971 Descending Minneapolis Center
Sun 12:30:26 PM 44.8544 -93.2336 351° North 140 161 1,100 -730 Descending Minneapolis Center
Sun 12:32:00 PM 44.8667 -93.2167 13° North  Level FlightAware Approximate
Sun 12:39:00 PM 44.8820 -93.2218 13° North  Level Estimated

Login

Don't have an account? Register now (free) for customized features, flight alerts, and more!